Time;durP1;ratioP1;P1;durP2;ratioP2;P2;SDS_P1;SDS_P2;PMS_P1;PMS_P2;Temp;Humidity;BMP_temperature;BMP_pressure;BME280_temperature;BME280_humidity;BME280_pressure;Samples;Min_cycle;Max_cycle;Signal;HPM_P1;HPM_P2
2021/04/11 00:02:20;;;;;;;;;;;;;;;;;;5071725;28;1209;-57
2021/04/11 00:04:45;;;;;;;;;;;;;;;;;;5088249;28;819;-58
2021/04/11 00:07:10;;;;;;;;;;;;;;;;;;5087982;28;1979;-58
2021/04/11 00:09:36;;;;;;;;;;;;;;;;;;5089197;28;822;-57
2021/04/11 00:12:01;;;;;;;;;;;;;;;;;;5087712;28;807;-57
2021/04/11 00:14:27;;;;;;;;;;;;;;;;;;5087523;28;849;-58
2021/04/11 00:16:52;;;;;;;;;;;;;;;;;;5087784;28;862;-57
2021/04/11 00:19:17;;;;;;;;;;;;;;;;;;5088035;28;929;-57
2021/04/11 00:21:43;;;;;;;;;;;;;;;;;;5088149;28;814;-57
2021/04/11 00:24:08;;;;;;;;;;;;;;;;;;5087813;28;811;-58
2021/04/11 00:26:33;;;;;;;;;;;;;;;;;;5088654;28;814;-57
2021/04/11 00:28:59;;;;;;;;;;;;;;;;;;5087035;28;1893;-57
2021/04/11 00:31:25;;;;;;;;;;;;;;;;;;5087395;28;964;-57
2021/04/11 00:33:50;;;;;;;;;;;;;;;;;;5087390;28;878;-57
2021/04/11 00:36:17;;;;;;;;;;;;;;;;;;5087243;28;921;-58
2021/04/11 00:38:42;;;;;;;;;;;;;;;;;;5087411;28;878;-58
2021/04/11 00:41:11;;;;;;;;;;;;;;;;;;5070180;28;846;-58
2021/04/11 00:43:38;;;;;;;;;;;;;;;;;;5082029;28;1027;-57
2021/04/11 00:46:07;;;;;;;;;;;;;;;;;;5088560;28;850;-57
2021/04/11 00:48:33;;;;;;;;;;;;;;;;;;5087233;28;1970;-58
2021/04/11 00:51:00;;;;;;;;;;;;;;;;;;5086910;28;834;-57
2021/04/11 00:53:25;;;;;;;;;;;;;;;;;;5087065;28;1184;-57
2021/04/11 00:55:51;;;;;;;;;;;;;;;;;;5086800;28;885;-57
2021/04/11 00:58:17;;;;;;;;;;;;;;;;;;5087200;28;901;-58
2021/04/11 01:00:43;;;;;;;;;;;;;;;;;;5087044;28;834;-58
2021/04/11 01:03:08;;;;;;;;;;;;;;;;;;5066614;28;1260;-58
2021/04/11 01:05:35;;;;;;;;;;;;;;;;;;5048091;28;839;-57
2021/04/11 01:08:11;;;;;;;;;;;;;;;;;;5046708;28;1983;-57
2021/04/11 01:10:43;;;;;;;;;;;;;;;;;;5047464;28;830;-57
2021/04/11 01:13:09;;;;;;;;;;;;;;;;;;5046430;28;917;-58
2021/04/11 01:15:35;;;;;;;;;;;;;;;;;;5047841;28;820;-57
2021/04/11 01:18:00;;;;;;;;;;;;;;;;;;5046743;28;831;-58
2021/04/11 01:20:26;;;;;;;;;;;;;;;;;;5046512;28;807;-58
2021/04/11 01:22:54;;;;;;;;;;;;;;;;;;5046732;28;866;-58
2021/04/11 01:25:21;;;;;;;;;;;;;;;;;;5046574;28;858;-58
2021/04/11 01:27:46;;;;;;;;;;;;;;;;;;5046516;28;1914;-57
2021/04/11 01:30:18;;;;;;;;;;;;;;;;;;5046359;28;846;-58
2021/04/11 01:32:44;;;;;;;;;;;;;;;;;;5046580;28;1095;-57
2021/04/11 01:35:09;;;;;;;;;;;;;;;;;;5046360;28;815;-58
2021/04/11 01:37:36;;;;;;;;;;;;;;;;;;5047275;28;822;-57
2021/04/11 01:40:02;;;;;;;;;;;;;;;;;;5052007;28;1317;-57
2021/04/11 01:42:27;;;;;;;;;;;;;;;;;;5066299;28;808;-57
2021/04/11 01:44:53;;;;;;;;;;;;;;;;;;5066045;28;834;-57
2021/04/11 01:47:19;;;;;;;;;;;;;;;;;;5066047;28;1918;-57
2021/04/11 01:49:45;;;;;;;;;;;;;;;;;;5066568;28;830;-57
2021/04/11 01:52:22;;;;;;;;;;;;;;;;;;5066460;28;835;-58
2021/04/11 01:54:48;;;;;;;;;;;;;;;;;;5066548;28;922;-57
2021/04/11 01:57:24;;;;;;;;;;;;;;;;;;5066167;28;940;-57
2021/04/11 01:59:50;;;;;;;;;;;;;;;;;;5066222;28;874;-57
2021/04/11 02:02:16;;;;;;;;;;;;;;;;;;5062608;28;1288;-58
2021/04/11 02:04:41;;;;;;;;;;;;;;;;;;5045712;28;823;-58
2021/04/11 02:07:08;;;;;;;;;;;;;;;;;;5046414;28;1905;-57
2021/04/11 02:09:35;;;;;;;;;;;;;;;;;;5046556;28;831;-57
2021/04/11 02:12:00;;;;;;;;;;;;;;;;;;5045905;28;882;-57
2021/04/11 02:14:26;;;;;;;;;;;;;;;;;;5046280;28;831;-57
2021/04/11 02:16:54;;;;;;;;;;;;;;;;;;5046181;28;800;-57
2021/04/11 02:19:23;;;;;;;;;;;;;;;;;;5045626;28;834;-57
2021/04/11 02:21:57;;;;;;;;;;;;;;;;;;5045780;28;946;-58
2021/04/11 02:24:22;;;;;;;;;;;;;;;;;;5061539;28;1468;-58
2021/04/11 02:26:48;;;;;;;;;;;;;;;;;;5028103;28;861;-57
2021/04/11 02:29:14;;;;;;;;;;;;;;;;;;5045744;28;1890;-57
2021/04/11 02:31:40;;;;;;;;;;;;;;;;;;5046385;28;1046;-57
2021/04/11 02:34:06;;;;;;;;;;;;;;;;;;5046766;28;904;-57
2021/04/11 02:36:39;;;;;;;;;;;;;;;;;;5046087;28;863;-57
2021/04/11 02:39:09;;;;;;;;;;;;;;;;;;5052965;28;1627;-58
2021/04/11 02:41:34;;;;;;;;;;;;;;;;;;5059610;28;898;-57
2021/04/11 02:44:00;;;;;;;;;;;;;;;;;;5065652;28;814;-57
2021/04/11 02:46:25;;;;;;;;;;;;;;;;;;5065491;28;862;-58
2021/04/11 02:48:54;;;;;;;;;;;;;;;;;;5065189;28;1958;-57
2021/04/11 02:51:20;;;;;;;;;;;;;;;;;;5065219;28;834;-57
2021/04/11 02:53:46;;;;;;;;;;;;;;;;;;5065588;28;957;-57
2021/04/11 02:56:15;;;;;;;;;;;;;;;;;;5065158;28;1762;-58
2021/04/11 02:58:41;;;;;;;;;;;;;;;;;;5063493;28;838;-58
2021/04/11 03:01:11;;;;;;;;;;;;;;;;;;5066454;28;894;-57
2021/04/11 03:03:37;;;;;;;;;;;;;;;;;;5066343;28;1191;-57
2021/04/11 03:06:05;;;;;;;;;;;;;;;;;;5065265;28;898;-57
2021/04/11 03:08:32;;;;;;;;;;;;;;;;;;5065318;28;1897;-57
2021/04/11 03:11:06;;;;;;;;;;;;;;;;;;5065328;28;839;-57
2021/04/11 03:13:33;;;;;;;;;;;;;;;;;;5067020;28;815;-57
2021/04/11 03:15:58;;;;;;;;;;;;;;;;;;5068999;28;957;-58
2021/04/11 03:18:25;;;;;;;;;;;;;;;;;;5068359;28;1556;-58
2021/04/11 03:20:51;;;;;;;;;;;;;;;;;;5069156;28;882;-57
2021/04/11 03:23:17;;;;;;;;;;;;;;;;;;5068939;28;794;-57
2021/04/11 03:25:43;;;;;;;;;;;;;;;;;;5069032;28;865;-58
2021/04/11 03:28:19;;;;;;;;;;;;;;;;;;5069017;28;1882;-58
2021/04/11 03:30:50;;;;;;;;;;;;;;;;;;5068492;28;842;-57
2021/04/11 03:33:18;;;;;;;;;;;;;;;;;;5068699;28;902;-57
2021/04/11 03:35:46;;;;;;;;;;;;;;;;;;5069160;28;862;-57
2021/04/11 03:38:13;;;;;;;;;;;;;;;;;;5068976;28;862;-57
2021/04/11 03:40:40;;;;;;;;;;;;;;;;;;5069062;28;889;-58
2021/04/11 03:43:12;;;;;;;;;;;;;;;;;;5069604;28;826;-57
2021/04/11 03:45:37;;;;;;;;;;;;;;;;;;5069286;28;1678;-57
2021/04/11 03:48:06;;;;;;;;;;;;;;;;;;5069217;28;1996;-57
2021/04/11 03:50:34;;;;;;;;;;;;;;;;;;5068889;28;822;-57
2021/04/11 03:53:15;;;;;;;;;;;;;;;;;;5068557;28;1018;-57
2021/04/11 03:55:43;;;;;;;;;;;;;;;;;;5068597;28;899;-57
2021/04/11 03:58:29;;;;;;;;;;;;;;;;;;5069645;28;877;-58
2021/04/11 04:01:01;;;;;;;;;;;;;;;;;;5068595;28;934;-57
2021/04/11 04:03:28;;;;;;;;;;;;;;;;;;5068655;28;1205;-57
2021/04/11 04:05:54;;;;;;;;;;;;;;;;;;5068583;28;1082;-57
2021/04/11 04:08:20;;;;;;;;;;;;;;;;;;5068337;28;1906;-57
2021/04/11 04:10:58;;;;;;;;;;;;;;;;;;5067994;28;817;-57
2021/04/11 04:13:31;;;;;;;;;;;;;;;;;;5067618;28;890;-57
2021/04/11 04:16:15;;;;;;;;;;;;;;;;;;5067884;28;861;-57
2021/04/11 04:18:40;;;;;;;;;;;;;;;;;;5067953;28;893;-57
2021/04/11 04:21:18;;;;;;;;;;;;;;;;;;5066634;28;1448;-57
2021/04/11 04:23:55;;;;;;;;;;;;;;;;;;5067820;28;893;-57
2021/04/11 04:26:30;;;;;;;;;;;;;;;;;;5066130;28;893;-57
2021/04/11 04:29:10;;;;;;;;;;;;;;;;;;5067843;28;1972;-57
2021/04/11 04:31:42;;;;;;;;;;;;;;;;;;5068713;28;810;-57
2021/04/11 04:34:16;;;;;;;;;;;;;;;;;;5067351;28;1596;-58
2021/04/11 04:36:41;;;;;;;;;;;;;;;;;;5067305;28;890;-57
2021/04/11 04:39:06;;;;;;;;;;;;;;;;;;5068271;28;865;-58
2021/04/11 04:41:41;;;;;;;;;;;;;;;;;;5067353;28;810;-57
2021/04/11 04:44:18;;;;;;;;;;;;;;;;;;5063191;28;1097;-57
2021/04/11 04:47:02;;;;;;;;;;;;;;;;;;5046909;28;865;-58
2021/04/11 04:49:37;;;;;;;;;;;;;;;;;;5047072;28;1894;-57
2021/04/11 04:52:05;;;;;;;;;;;;;;;;;;5047455;28;795;-57
2021/04/11 04:54:49;;;;;;;;;;;;;;;;;;5047259;28;941;-57
2021/04/11 04:57:18;;;;;;;;;;;;;;;;;;5046708;28;1074;-57
2021/04/11 04:59:49;;;;;;;;;;;;;;;;;;5047594;28;819;-57
2021/04/11 05:02:15;;;;;;;;;;;;;;;;;;5053104;28;1190;-58
2021/04/11 05:04:44;;;;;;;;;;;;;;;;;;5086887;28;878;-58
2021/04/11 05:07:13;;;;;;;;;;;;;;;;;;5087625;28;862;-57
2021/04/11 05:09:42;;;;;;;;;;;;;;;;;;5087793;28;921;-57
2021/04/11 05:12:13;;;;;;;;;;;;;;;;;;5087844;28;834;-57
2021/04/11 05:14:59;;;;;;;;;;;;;;;;;;5087640;28;937;-57
2021/04/11 05:17:33;;;;;;;;;;;;;;;;;;5046456;28;867;-57
2021/04/11 05:20:10;;;;;;;;;;;;;;;;;;5045901;28;811;-57
2021/04/11 05:22:53;;;;;;;;;;;;;;;;;;5046612;28;890;-57
2021/04/11 05:25:22;;;;;;;;;;;;;;;;;;5046137;28;882;-57
2021/04/11 05:27:54;;;;;;;;;;;;;;;;;;5046187;28;1999;-57
2021/04/11 05:30:25;;;;;;;;;;;;;;;;;;5028625;28;771;-57
2021/04/11 05:32:51;;;;;;;;;;;;;;;;;;5045856;28;886;-57
2021/04/11 05:35:17;;;;;;;;;;;;;;;;;;5046073;28;803;-57
2021/04/11 05:37:52;;;;;;;;;;;;;;;;;;5046088;28;886;-58
2021/04/11 05:40:26;;;;;;;;;;;;;;;;;;5046407;28;901;-57
2021/04/11 05:42:58;;;;;;;;;;;;;;;;;;5028488;28;929;-57
2021/04/11 05:45:32;;;;;;;;;;;;;;;;;;5046051;28;851;-57
2021/04/11 05:48:03;;;;;;;;;;;;;;;;;;5045566;28;1965;-57
2021/04/11 05:50:38;;;;;;;;;;;;;;;;;;5046397;28;838;-57
2021/04/11 05:53:23;;;;;;;;;;;;;;;;;;5046268;28;858;-57
2021/04/11 05:55:53;;;;;;;;;;;;;;;;;;5045358;28;1189;-57
2021/04/11 05:58:21;;;;;;;;;;;;;;;;;;5045816;28;877;-57
2021/04/11 06:00:50;;;;;;;;;;;;;;;;;;5046073;28;875;-57
2021/04/11 06:03:18;;;;;;;;;;;;;;;;;;5056792;28;1269;-57
2021/04/11 06:05:51;;;;;;;;;;;;;;;;;;5065832;28;790;-57
2021/04/11 06:08:35;;;;;;;;;;;;;;;;;;5065625;28;1902;-56
2021/04/11 06:11:11;;;;;;;;;;;;;;;;;;5066965;28;810;-57
2021/04/11 06:13:41;;;;;;;;;;;;;;;;;;5067972;28;917;-57
2021/04/11 06:16:10;;;;;;;;;;;;;;;;;;5064986;28;1104;-57
2021/04/11 06:18:39;;;;;;;;;;;;;;;;;;5065060;28;1136;-57
2021/04/11 06:21:11;;;;;;;;;;;;;;;;;;5066462;28;834;-57
2021/04/11 06:23:42;;;;;;;;;;;;;;;;;;5067501;28;822;-57
2021/04/11 06:26:29;;;;;;;;;;;;;;;;;;5067296;28;1172;-57
2021/04/11 06:28:54;;;;;;;;;;;;;;;;;;5054600;28;1972;-57
2021/04/11 06:31:25;;;;;;;;;;;;;;;;;;5057377;28;1219;-57
2021/04/11 06:33:54;;;;;;;;;;;;;;;;;;5065106;28;1215;-58
2021/04/11 06:36:22;;;;;;;;;;;;;;;;;;5066901;28;874;-57
2021/04/11 06:38:49;;;;;;;;;;;;;;;;;;5063488;28;1179;-56
2021/04/11 06:41:14;;;;;;;;;;;;;;;;;;5049758;28;1207;-57
2021/04/11 06:43:54;;;;;;;;;;;;;;;;;;5047603;28;897;-57
2021/04/11 06:46:34;;;;;;;;;;;;;;;;;;5069138;28;1220;-57
2021/04/11 06:49:17;;;;;;;;;;;;;;;;;;5059221;28;1963;-57
2021/04/11 06:51:58;;;;;;;;;;;;;;;;;;5049960;28;886;-57
2021/04/11 06:54:45;;;;;;;;;;;;;;;;;;5050395;28;951;-57
2021/04/11 06:57:28;;;;;;;;;;;;;;;;;;5056307;28;1333;-57
2021/04/11 07:00:09;;;;;;;;;;;;;;;;;;5052354;28;997;-57
2021/04/11 07:02:40;;;;;;;;;;;;;;;;;;5054516;28;1262;-57
2021/04/11 07:05:12;;;;;;;;;;;;;;;;;;5066522;28;1137;-57
2021/04/11 07:07:37;;;;;;;;;;;;;;;;;;5051524;28;1905;-57
2021/04/11 07:10:23;;;;;;;;;;;;;;;;;;5052244;28;1206;-57
2021/04/11 07:13:07;;;;;;;;;;;;;;;;;;5060907;28;1253;-57
2021/04/11 07:15:32;;;;;;;;;;;;;;;;;;5065416;28;1161;-56
2021/04/11 07:18:11;;;;;;;;;;;;;;;;;;5080320;28;1080;-57
2021/04/11 07:20:42;;;;;;;;;;;;;;;;;;5070881;28;1199;-57
2021/04/11 07:23:17;;;;;;;;;;;;;;;;;;5071355;28;898;-58
2021/04/11 07:25:45;;;;;;;;;;;;;;;;;;5069918;28;890;-58
2021/04/11 07:28:20;;;;;;;;;;;;;;;;;;5070686;28;1902;-57
2021/04/11 07:31:09;;;;;;;;;;;;;;;;;;5069862;28;803;-59
2021/04/11 07:33:51;;;;;;;;;;;;;;;;;;5064255;28;1263;-57
2021/04/11 07:36:19;;;;;;;;;;;;;;;;;;5069604;28;807;-57
2021/04/11 07:38:57;;;;;;;;;;;;;;;;;;5069672;28;881;-58
2021/04/11 07:41:25;;;;;;;;;;;;;;;;;;5070339;28;1067;-58
2021/04/11 07:43:54;;;;;;;;;;;;;;;;;;5069026;28;790;-58
2021/04/11 07:46:38;;;;;;;;;;;;;;;;;;5069753;28;791;-58
2021/04/11 07:49:03;;;;;;;;;;;;;;;;;;5069811;28;1878;-58
2021/04/11 07:51:47;;;;;;;;;;;;;;;;;;5069306;28;834;-57
2021/04/11 07:54:34;;;;;;;;;;;;;;;;;;5066511;28;1188;-58
2021/04/11 07:57:05;;;;;;;;;;;;;;;;;;5069668;28;885;-57
2021/04/11 07:59:38;;;;;;;;;;;;;;;;;;5068345;28;886;-57
2021/04/11 08:02:09;;;;;;;;;;;;;;;;;;5058881;28;1207;-58
2021/04/11 08:04:53;;;;;;;;;;;;;;;;;;5069587;28;826;-56
2021/04/11 08:07:42;;;;;;;;;;;;;;;;;;5067687;28;1831;-58
2021/04/11 08:10:33;;;;;;;;;;;;;;;;;;5062728;28;1436;-57
2021/04/11 08:13:13;;;;;;;;;;;;;;;;;;5051391;28;1650;-58
2021/04/11 08:15:48;;;;;;;;;;;;;;;;;;5070039;28;1700;-58
2021/04/11 08:18:23;;;;;;;;;;;;;;;;;;5068955;28;885;-58
2021/04/11 08:20:49;;;;;;;;;;;;;;;;;;5069283;28;885;-59
2021/04/11 08:23:17;;;;;;;;;;;;;;;;;;5069047;28;819;-58
2021/04/11 08:25:50;;;;;;;;;;;;;;;;;;5068536;28;1642;-59
2021/04/11 08:28:33;;;;;;;;;;;;;;;;;;5059372;28;1893;-56
2021/04/11 08:31:31;;;;;;;;;;;;;;;;;;5058356;28;1060;-57
2021/04/11 08:33:59;;;;;;;;;;;;;;;;;;5049033;28;831;-57
2021/04/11 08:36:25;;;;;;;;;;;;;;;;;;5048927;28;870;-57
2021/04/11 08:39:16;;;;;;;;;;;;;;;;;;5049648;28;1073;-57
2021/04/11 08:41:48;;;;;;;;;;;;;;;;;;5058612;28;1617;-61
2021/04/11 08:44:40;;;;;;;;;;;;;;;;;;5066973;28;1324;-57
2021/04/11 08:47:05;;;;;;;;;;;;;;;;;;5058633;28;1220;-57
2021/04/11 08:49:51;;;;;;;;;;;;;;;;;;5047873;28;1972;-66
2021/04/11 08:52:36;;;;;;;;;;;;;;;;;;5053392;28;1093;-59
2021/04/11 08:55:10;;;;;;;;;;;;;;;;;;5048309;28;877;-57
2021/04/11 08:57:35;;;;;;;;;;;;;;;;;;5048002;28;857;-57
2021/04/11 09:00:07;;;;;;;;;;;;;;;;;;5048154;28;861;-57
2021/04/11 09:02:39;;;;;;;;;;;;;;;;;;5059017;28;1091;-57
2021/04/11 09:05:17;;;;;;;;;;;;;;;;;;5088755;28;851;-57
2021/04/11 09:08:02;;;;;;;;;;;;;;;;;;5088598;28;1971;-58
2021/04/11 09:10:39;;;;;;;;;;;;;;;;;;5087761;28;889;-57
2021/04/11 09:13:11;;;;;;;;;;;;;;;;;;5079257;28;1415;-57
2021/04/11 09:15:55;;;;;;;;;;;;;;;;;;5067740;28;1554;-57
2021/04/11 09:18:24;;;;;;;;;;;;;;;;;;5067901;28;935;-57
2021/04/11 09:20:52;;;;;;;;;;;;;;;;;;5068424;28;811;-58
2021/04/11 09:23:20;;;;;;;;;;;;;;;;;;5067810;28;839;-57
2021/04/11 09:25:55;;;;;;;;;;;;;;;;;;5067323;28;815;-58
2021/04/11 09:28:33;;;;;;;;;;;;;;;;;;5067947;28;1889;-57
2021/04/11 09:31:27;;;;;;;;;;;;;;;;;;5067845;28;890;-57
2021/04/11 09:33:58;;;;;;;;;;;;;;;;;;5049692;28;1168;-57
2021/04/11 09:36:24;;;;;;;;;;;;;;;;;;5067717;28;826;-57
2021/04/11 09:38:49;;;;;;;;;;;;;;;;;;5067564;28;806;-57
2021/04/11 09:41:34;;;;;;;;;;;;;;;;;;5067673;28;811;-57
2021/04/11 09:43:59;;;;;;;;;;;;;;;;;;5066906;28;1328;-57
2021/04/11 09:46:43;;;;;;;;;;;;;;;;;;5067317;28;881;-58
2021/04/11 09:49:18;;;;;;;;;;;;;;;;;;5067831;28;1890;-57
2021/04/11 09:51:53;;;;;;;;;;;;;;;;;;5067661;28;1036;-58
2021/04/11 09:54:24;;;;;;;;;;;;;;;;;;5067841;28;810;-57
2021/04/11 09:56:53;;;;;;;;;;;;;;;;;;5067368;28;656;-57
2021/04/11 09:59:18;;;;;;;;;;;;;;;;;;5048967;28;1523;-57
2021/04/11 10:01:43;;;;;;;;;;;;;;;;;;5067704;28;814;-57
2021/04/11 10:04:12;;;;;;;;;;;;;;;;;;5086540;28;1209;-57
2021/04/11 10:06:47;;;;;;;;;;;;;;;;;;5088441;28;870;-57
2021/04/11 10:09:31;;;;;;;;;;;;;;;;;;5069053;28;1988;-58
2021/04/11 10:12:05;;;;;;;;;;;;;;;;;;5083876;28;1442;-57
2021/04/11 10:14:38;;;;;;;;;;;;;;;;;;5066599;28;886;-57
2021/04/11 10:17:22;;;;;;;;;;;;;;;;;;5066716;28;850;-57
2021/04/11 10:19:53;;;;;;;;;;;;;;;;;;5067432;28;881;-57
2021/04/11 10:22:30;;;;;;;;;;;;;;;;;;5066517;28;823;-57
2021/04/11 10:25:03;;;;;;;;;;;;;;;;;;5066773;28;906;-57
2021/04/11 10:27:34;;;;;;;;;;;;;;;;;;5067571;28;1894;-57
2021/04/11 10:30:00;;;;;;;;;;;;;;;;;;5066646;28;1246;-57
2021/04/11 10:32:44;;;;;;;;;;;;;;;;;;5067044;28;906;-57
2021/04/11 10:35:10;;;;;;;;;;;;;;;;;;5068045;28;795;-57
2021/04/11 10:37:35;;;;;;;;;;;;;;;;;;5066710;28;818;-57
2021/04/11 10:40:20;;;;;;;;;;;;;;;;;;5066520;28;795;-57
2021/04/11 10:42:51;;;;;;;;;;;;;;;;;;5066573;28;858;-57
2021/04/11 10:45:25;;;;;;;;;;;;;;;;;;5066441;28;882;-57
2021/04/11 10:48:06;;;;;;;;;;;;;;;;;;5066365;28;1963;-56
2021/04/11 10:50:53;;;;;;;;;;;;;;;;;;5067230;28;1229;-57
2021/04/11 10:53:33;;;;;;;;;;;;;;;;;;5047087;28;835;-56
2021/04/11 10:56:05;;;;;;;;;;;;;;;;;;5046487;28;811;-57
2021/04/11 10:58:30;;;;;;;;;;;;;;;;;;5046686;28;879;-57
2021/04/11 11:01:16;;;;;;;;;;;;;;;;;;5054660;28;1266;-57
2021/04/11 11:04:10;;;;;;;;;;;;;;;;;;5081147;28;1271;-57
2021/04/11 11:06:42;;;;;;;;;;;;;;;;;;5030525;28;1314;-57
2021/04/11 11:09:17;;;;;;;;;;;;;;;;;;5087650;28;1973;-57
2021/04/11 11:11:49;;;;;;;;;;;;;;;;;;5086762;28;834;-59
2021/04/11 11:14:23;;;;;;;;;;;;;;;;;;5086343;28;882;-57
2021/04/11 11:17:12;;;;;;;;;;;;;;;;;;5086613;28;873;-57
2021/04/11 11:19:44;;;;;;;;;;;;;;;;;;5087183;28;842;-57
2021/04/11 11:22:26;;;;;;;;;;;;;;;;;;5087432;28;961;-57
2021/04/11 11:24:58;;;;;;;;;;;;;;;;;;5087119;28;902;-57
2021/04/11 11:27:42;;;;;;;;;;;;;;;;;;5086692;28;874;-57
2021/04/11 11:30:20;;;;;;;;;;;;;;;;;;5084394;28;1269;-57
2021/04/11 11:32:48;;;;;;;;;;;;;;;;;;5048848;28;895;-58
2021/04/11 11:35:14;;;;;;;;;;;;;;;;;;5069189;28;822;-58
2021/04/11 11:37:49;;;;;;;;;;;;;;;;;;5071090;28;881;-57
2021/04/11 11:40:24;;;;;;;;;;;;;;;;;;5069428;28;901;-60
2021/04/11 11:42:55;;;;;;;;;;;;;;;;;;5069856;28;878;-57
2021/04/11 11:45:28;;;;;;;;;;;;;;;;;;5069725;28;843;-58
2021/04/11 11:47:54;;;;;;;;;;;;;;;;;;5069489;28;1906;-58
2021/04/11 11:50:24;;;;;;;;;;;;;;;;;;5070138;28;834;-58
2021/04/11 11:52:51;;;;;;;;;;;;;;;;;;5068718;28;1473;-57
2021/04/11 11:55:32;;;;;;;;;;;;;;;;;;5069202;28;837;-57
2021/04/11 11:58:14;;;;;;;;;;;;;;;;;;5068144;28;1431;-57
2021/04/11 12:00:43;;;;;;;;;;;;;;;;;;5068924;28;1269;-57
2021/04/11 12:03:22;;;;;;;;;;;;;;;;;;5076955;28;1146;-57
2021/04/11 12:06:06;;;;;;;;;;;;;;;;;;5048859;28;1306;-57
2021/04/11 12:08:49;;;;;;;;;;;;;;;;;;5060645;28;1902;-57
2021/04/11 12:11:24;;;;;;;;;;;;;;;;;;5059217;28;1132;-57
2021/04/11 12:14:02;;;;;;;;;;;;;;;;;;5059367;28;1219;-57
2021/04/11 12:16:30;;;;;;;;;;;;;;;;;;5061218;28;1136;-57
2021/04/11 12:19:04;;;;;;;;;;;;;;;;;;5088026;28;1155;-57
2021/04/11 12:21:33;;;;;;;;;;;;;;;;;;5077197;28;1147;-57
2021/04/11 12:24:05;;;;;;;;;;;;;;;;;;5059746;28;1223;-57
2021/04/11 12:26:32;;;;;;;;;;;;;;;;;;5057528;28;1208;-57
2021/04/11 12:29:06;;;;;;;;;;;;;;;;;;5059298;28;1938;-57
2021/04/11 12:31:37;;;;;;;;;;;;;;;;;;5062584;28;1204;-57
2021/04/11 12:34:21;;;;;;;;;;;;;;;;;;5062576;28;1302;-57
2021/04/11 12:37:19;;;;;;;;;;;;;;;;;;5058917;28;1199;-57
2021/04/11 12:39:45;;;;;;;;;;;;;;;;;;5017109;28;1236;-58
2021/04/11 12:42:10;;;;;;;;;;;;;;;;;;5060022;28;1140;-57
2021/04/11 12:44:54;;;;;;;;;;;;;;;;;;5056810;28;1306;-57
2021/04/11 12:47:19;;;;;;;;;;;;;;;;;;5067576;28;740;-57
2021/04/11 12:50:03;;;;;;;;;;;;;;;;;;5068068;28;1976;-57
2021/04/11 12:52:47;;;;;;;;;;;;;;;;;;5053503;28;1223;-57
2021/04/11 12:55:25;;;;;;;;;;;;;;;;;;5058740;28;1119;-58
2021/04/11 12:57:59;;;;;;;;;;;;;;;;;;5053960;28;1188;-57
2021/04/11 13:00:27;;;;;;;;;;;;;;;;;;5038143;28;1393;-57
2021/04/11 13:03:02;;;;;;;;;;;;;;;;;;5057491;28;1081;-57
2021/04/11 13:05:40;;;;;;;;;;;;;;;;;;5057101;28;807;-57
2021/04/11 13:08:05;;;;;;;;;;;;;;;;;;5067577;28;1902;-57
2021/04/11 13:10:43;;;;;;;;;;;;;;;;;;5058360;28;1317;-57
2021/04/11 13:13:19;;;;;;;;;;;;;;;;;;5058349;28;1176;-57
2021/04/11 13:15:45;;;;;;;;;;;;;;;;;;5050027;28;1173;-57
2021/04/11 13:18:13;;;;;;;;;;;;;;;;;;5052088;28;1302;-57
2021/04/11 13:20:42;;;;;;;;;;;;;;;;;;5052814;28;1180;-57
2021/04/11 13:23:10;;;;;;;;;;;;;;;;;;5067949;28;854;-57
2021/04/11 13:25:36;;;;;;;;;;;;;;;;;;5067455;28;1141;-57
2021/04/11 13:28:01;;;;;;;;;;;;;;;;;;5067390;28;1971;-57
2021/04/11 13:30:29;;;;;;;;;;;;;;;;;;5068237;28;880;-56
2021/04/11 13:32:58;;;;;;;;;;;;;;;;;;5067629;28;891;-57
2021/04/11 13:35:27;;;;;;;;;;;;;;;;;;5067887;28;814;-57
2021/04/11 13:37:54;;;;;;;;;;;;;;;;;;5067903;28;636;-57
2021/04/11 13:40:23;;;;;;;;;;;;;;;;;;5067909;28;726;-57
2021/04/11 13:42:52;;;;;;;;;;;;;;;;;;5067399;28;802;-57
2021/04/11 13:45:27;;;;;;;;;;;;;;;;;;5066333;28;1171;-58
2021/04/11 13:47:52;;;;;;;;;;;;;;;;;;5046761;28;1950;-58
2021/04/11 13:50:19;;;;;;;;;;;;;;;;;;5046046;28;929;-58
2021/04/11 13:52:53;;;;;;;;;;;;;;;;;;5028975;28;969;-58
2021/04/11 13:55:34;;;;;;;;;;;;;;;;;;5049049;28;1856;-58
2021/04/11 13:58:18;;;;;;;;;;;;;;;;;;5055823;28;839;-57
2021/04/11 14:00:55;;;;;;;;;;;;;;;;;;5047280;28;862;-58
2021/04/11 14:03:39;;;;;;;;;;;;;;;;;;5059467;28;1081;-59
2021/04/11 14:06:25;;;;;;;;;;;;;;;;;;5067078;28;824;-58
2021/04/11 14:08:52;;;;;;;;;;;;;;;;;;5055854;28;2109;-58
2021/04/11 14:11:36;;;;;;;;;;;;;;;;;;5067760;28;822;-58
2021/04/11 14:14:09;;;;;;;;;;;;;;;;;;5048872;28;839;-57
2021/04/11 14:16:58;;;;;;;;;;;;;;;;;;5067263;28;831;-58
2021/04/11 14:19:26;;;;;;;;;;;;;;;;;;5049672;28;790;-58
2021/04/11 14:22:01;;;;;;;;;;;;;;;;;;5067165;28;823;-58
2021/04/11 14:24:29;;;;;;;;;;;;;;;;;;5067374;28;807;-58
2021/04/11 14:27:13;;;;;;;;;;;;;;;;;;5067314;28;808;-57
2021/04/11 14:29:43;;;;;;;;;;;;;;;;;;5056932;28;1962;-57
2021/04/11 14:32:27;;;;;;;;;;;;;;;;;;5050312;28;1088;-58
2021/04/11 14:34:58;;;;;;;;;;;;;;;;;;5066560;28;795;-58
2021/04/11 14:37:28;;;;;;;;;;;;;;;;;;5067395;28;890;-58
2021/04/11 14:40:09;;;;;;;;;;;;;;;;;;5066487;28;795;-58
2021/04/11 14:42:37;;;;;;;;;;;;;;;;;;5063744;28;1227;-58
2021/04/11 14:45:05;;;;;;;;;;;;;;;;;;5066014;28;1473;-56
2021/04/11 14:47:41;;;;;;;;;;;;;;;;;;5063232;28;1089;-57
2021/04/11 14:50:14;;;;;;;;;;;;;;;;;;5061101;28;1661;-58
2021/04/11 14:52:52;;;;;;;;;;;;;;;;;;5059194;28;1938;-59
2021/04/11 14:55:41;;;;;;;;;;;;;;;;;;5058009;28;1545;-57
2021/04/11 14:58:21;;;;;;;;;;;;;;;;;;5038494;28;1530;-57
2021/04/11 15:00:54;;;;;;;;;;;;;;;;;;5058121;28;1290;-58
2021/04/11 15:03:37;;;;;;;;;;;;;;;;;;5060882;28;1161;-57
2021/04/11 15:06:31;;;;;;;;;;;;;;;;;;5081839;27;1753;-58
2021/04/11 15:09:26;;;;;;;;;;;;;;;;;;5083337;28;1049;-58
2021/04/11 15:12:01;;;;;;;;;;;;;;;;;;5071428;28;1412;-58
2021/04/11 15:14:32;;;;;;;;;;;;;;;;;;5081821;28;1509;-58
2021/04/11 15:17:16;;;;;;;;;;;;;;;;;;5081378;28;1091;-58
2021/04/11 15:19:53;;;;;;;;;;;;;;;;;;5088106;28;908;-59
2021/04/11 15:22:33;;;;;;;;;;;;;;;;;;5075604;28;1210;-59
2021/04/11 15:25:03;;;;;;;;;;;;;;;;;;5095927;28;1905;-60
2021/04/11 15:27:31;;;;;;;;;;;;;;;;;;5085914;28;1064;-59
2021/04/11 15:29:59;;;;;;;;;;;;;;;;;;5087204;28;1309;-58
2021/04/11 15:32:24;;;;;;;;;;;;;;;;;;5097798;28;838;-59
2021/04/11 15:34:54;;;;;;;;;;;;;;;;;;5090846;28;1299;-58
2021/04/11 15:37:23;;;;;;;;;;;;;;;;;;5098196;28;890;-59
2021/04/11 15:40:08;;;;;;;;;;;;;;;;;;5093953;28;1729;-59
2021/04/11 15:42:39;;;;;;;;;;;;;;;;;;5052196;28;1447;-59
2021/04/11 15:45:04;;;;;;;;;;;;;;;;;;5082920;28;2013;-59
2021/04/11 15:47:33;;;;;;;;;;;;;;;;;;5084608;28;1304;-60
2021/04/11 15:50:04;;;;;;;;;;;;;;;;;;5073409;28;1841;-59
2021/04/11 15:52:36;;;;;;;;;;;;;;;;;;5095072;28;901;-61
2021/04/11 15:55:07;;;;;;;;;;;;;;;;;;5087060;28;869;-58
2021/04/11 15:57:36;;;;;;;;;;;;;;;;;;5085802;28;1340;-59
2021/04/11 16:00:02;;;;;;;;;;;;;;;;;;5084986;28;993;-58
2021/04/11 16:02:35;;;;;;;;;;;;;;;;;;5060061;28;1816;-58
2021/04/11 16:05:15;;;;;;;;;;;;;;;;;;5051527;28;1914;-58
2021/04/11 16:07:43;;;;;;;;;;;;;;;;;;5096187;28;1031;-58
2021/04/11 16:10:14;;;;;;;;;;;;;;;;;;5099597;28;853;-58
2021/04/11 16:12:39;;;;;;;;;;;;;;;;;;5098318;28;940;-58
2021/04/11 16:15:08;;;;;;;;;;;;;;;;;;5097309;28;830;-58
2021/04/11 16:17:39;;;;;;;;;;;;;;;;;;5071875;28;870;-59
2021/04/11 16:20:15;;;;;;;;;;;;;;;;;;5069877;28;819;-59
2021/04/11 16:22:46;;;;;;;;;;;;;;;;;;5074298;28;1729;-58
2021/04/11 16:25:11;;;;;;;;;;;;;;;;;;5056061;28;1977;-58
2021/04/11 16:27:43;;;;;;;;;;;;;;;;;;5071569;28;1072;-59
2021/04/11 16:30:21;;;;;;;;;;;;;;;;;;5065023;28;1247;-59
2021/04/11 16:32:50;;;;;;;;;;;;;;;;;;5070843;28;885;-59
2021/04/11 16:35:30;;;;;;;;;;;;;;;;;;5033209;28;1593;-58
2021/04/11 16:38:22;;;;;;;;;;;;;;;;;;5068259;28;1162;-58
2021/04/11 16:41:13;;;;;;;;;;;;;;;;;;5068112;28;1351;-58
2021/04/11 16:43:46;;;;;;;;;;;;;;;;;;5052190;28;1244;-59
2021/04/11 16:46:16;;;;;;;;;;;;;;;;;;5069792;28;1976;-58
2021/04/11 16:48:55;;;;;;;;;;;;;;;;;;5070665;28;810;-58
2021/04/11 16:51:39;;;;;;;;;;;;;;;;;;5079090;28;971;-59
2021/04/11 16:54:22;;;;;;;;;;;;;;;;;;5084319;28;1128;-58
2021/04/11 16:56:49;;;;;;;;;;;;;;;;;;5084433;28;890;-58
2021/04/11 16:59:16;;;;;;;;;;;;;;;;;;5072817;28;1389;-59
2021/04/11 17:01:46;;;;;;;;;;;;;;;;;;5070686;28;842;-58
2021/04/11 17:04:18;;;;;;;;;;;;;;;;;;5070919;28;1901;-59
2021/04/11 17:06:56;;;;;;;;;;;;;;;;;;5072182;28;1126;-59
2021/04/11 17:09:22;;;;;;;;;;;;;;;;;;5074567;28;1067;-57
2021/04/11 17:12:00;;;;;;;;;;;;;;;;;;5082822;28;906;-58
2021/04/11 17:14:35;;;;;;;;;;;;;;;;;;5069506;28;1035;-58
2021/04/11 17:17:33;;;;;;;;;;;;;;;;;;5057960;28;1407;-58
2021/04/11 17:20:18;;;;;;;;;;;;;;;;;;5083388;28;1321;-58
2021/04/11 17:22:43;;;;;;;;;;;;;;;;;;5084189;28;794;-58
2021/04/11 17:25:27;;;;;;;;;;;;;;;;;;5067954;28;1913;-59
2021/04/11 17:28:01;;;;;;;;;;;;;;;;;;5073405;28;1701;-59
2021/04/11 17:30:29;;;;;;;;;;;;;;;;;;5077293;28;993;-59
2021/04/11 17:33:14;;;;;;;;;;;;;;;;;;5080797;28;1080;-58
2021/04/11 17:35:59;;;;;;;;;;;;;;;;;;5082158;28;1003;-58
2021/04/11 17:38:46;;;;;;;;;;;;;;;;;;5082256;28;1511;-59
2021/04/11 17:41:22;;;;;;;;;;;;;;;;;;5082894;28;861;-58
2021/04/11 17:44:06;;;;;;;;;;;;;;;;;;5074935;28;1073;-58
2021/04/11 17:46:53;;;;;;;;;;;;;;;;;;5068242;28;906;-58
2021/04/11 17:49:34;;;;;;;;;;;;;;;;;;5073372;28;831;-58
2021/04/11 17:52:12;;;;;;;;;;;;;;;;;;5081335;28;889;-58
2021/04/11 17:54:47;;;;;;;;;;;;;;;;;;5076376;28;1332;-58